• Join FlightAware (Why Join?)
  • Login
  • US Flag GB Flag 
16:59 EST


 

Airport Tracker/Info


-or-


 

Live Flight TrackerFlight Track Log ✈ AAY800 ✈ 29-Mar-2014 ✈ KPIE - KTOL

Flight Track Log - Related Links

Times and Time Zones

All times are in EDT time to prevent confusion due to time zone crossing. See the AAY800 flight status page for this flight to view local times or setup timezone preferences in your user account.

Time Position Orientation Groundspeed Altitude Reporting Facility
EDT Latitude Longitude Course Direction KTS MPH feet Rate Location/Type
09:23 27.9000 -82.6833 180° South 169 194 1,000  Level Tampa TRACON
09:23 27.8833 -82.6833 180° South 164 189 1,600 2,040 Climbing Tampa TRACON
09:24 27.8167 -82.6833 180° South 231 266 3,700 2,220 Climbing Tampa TRACON
09:25 27.8000 -82.7500 254° West 254 292 6,100 1,740 Climbing Tampa TRACON
09:27 27.9433 -82.7611 356° North 308 354 9,000 1,440 Climbing Jacksonville Center
09:28 28.0225 -82.7233 23° Northeast 308 354 10,500 1,380 Climbing Jacksonville Center
09:29 28.1100 -82.6856 21° North 315 362 11,800 1,800 Climbing Jacksonville Center
09:30 28.2164 -82.6758 North 345 397 14,100 2,400 Climbing Jacksonville Center
09:31 28.3208 -82.6708 North 363 418 16,600 2,040 Climbing Jacksonville Center
09:32 28.4272 -82.6658 North 374 430 18,200 1,440 Climbing Jacksonville Center
09:33 28.5400 -82.6514 North 385 443 19,500 1,080 Climbing Jacksonville Center
09:34 28.6694 -82.6489 North 406 467 20,400 1,140 Climbing Jacksonville Center
09:35 28.7800 -82.6461 North 420 483 21,800 1,200 Climbing Jacksonville Center
09:36 28.9094 -82.6411 North 439 505 22,900 1,080 Climbing Jacksonville Center
09:37 29.0325 -82.6336 North 444 511 24,000 600 Climbing Jacksonville Center
09:38 29.1597 -82.6264 North 444 511 24,100 540 Climbing Jacksonville Center
09:39 29.2872 -82.6164 North 449 517 25,100 960 Climbing Jacksonville Center
09:40 29.4164 -82.6111 North 454 522 26,100 1,140 Climbing Jacksonville Center
09:41 29.5481 -82.6014 North 461 531 27,400 1,260 Climbing Jacksonville Center
09:42 29.6878 -82.5936 North 456 525 28,700 780 Climbing Jacksonville Center
09:43 29.8131 -82.5886 North 456 525 29,000 120 Climbing Jacksonville Center
09:44 29.9406 -82.5833 North 456 525 29,000  Level Jacksonville Center
09:45 30.0572 -82.5758 North 456 525 29,000  Level Jacksonville Center
09:46 30.1867 -82.5731 North 456 525 29,000  Level Jacksonville Center
09:47 30.3142 -82.5628 North 456 525 29,000  Level Jacksonville Center
09:48 30.4414 -82.5600 North 456 525 29,000  Level Jacksonville Center
09:49 30.5708 -82.5525 North 456 525 29,000  Level Jacksonville Center
09:50 30.7025 -82.5494 North 456 525 29,000  Level Jacksonville Center
09:51 30.8339 -82.5417 North 456 525 29,000  Level Jacksonville Center
09:52 30.9656 -82.5317 North 461 531 29,000 600 Level Jacksonville Center
09:53 31.1053 -82.5286 North 461 531 30,200 960 Climbing Jacksonville Center
09:54 31.2347 -82.5256 North 456 525 31,000 360 Climbing Jacksonville Center
09:55 31.3581 -82.5472 351° North 456 525 31,000  Level Jacksonville Center
09:56 31.4689 -82.5808 345° North 451 519 31,000  Level Jacksonville Center
09:57 31.5942 -82.6119 348° North 451 519 31,000  Level Jacksonville Center
09:58 31.7194 -82.6483 346° North 451 519 31,000 480 Level Jacksonville Center
10:01 32.0444 -82.7403 347° North 455 524 32,800 660 Climbing Atlanta Center
10:02 32.1722 -82.7800 345° North 455 524 33,500 600 Climbing Atlanta Center
10:03 32.2978 -82.8103 348° North 455 524 34,000 240 Climbing Atlanta Center
10:04 32.4192 -82.8528 344° North 450 518 34,000  Level Atlanta Center
10:05 32.5303 -82.8833 347° North 451 519 34,000  Level Atlanta Center
10:06 32.6578 -82.9186 347° North 456 525 34,000  Level Atlanta Center
10:07 32.7792 -82.9492 348° North 467 537 34,000  Level Atlanta Center
10:08 32.9194 -82.9994 343° North 474 545 34,000  Level Atlanta Center
10:09 33.0469 -83.0303 349° North 474 545 34,000  Level Atlanta Center
10:10 33.1853 -83.0783 344° North 466 536 34,000  Level Atlanta Center
10:11 33.3147 -83.1092 349° North 472 543 34,000  Level Atlanta Center
10:12 33.4403 -83.1525 344° North 472 543 34,000  Level Atlanta Center
10:13 33.5700 -83.1836 349° North 472 543 34,000  Level Atlanta Center
10:14 33.7017 -83.2272 345° North 477 549 34,000  Level Atlanta Center
10:15 33.8356 -83.2611 348° North 477 549 34,000  Level Atlanta Center
10:16 33.9506 -83.3000 344° North 477 549 34,000  Level Atlanta Center
10:17 34.0864 -83.3364 347° North 482 555 34,000  Level Atlanta Center
10:18 34.2183 -83.3781 345° North 487 560 34,000  Level Atlanta Center
10:19 34.3519 -83.4147 347° North 493 567 34,000  Level Atlanta Center
10:20 34.4858 -83.4592 345° North 486 559 34,000  Level Atlanta Center
10:21 34.6194 -83.4911 349° North 492 566 34,000  Level Atlanta Center
10:22 34.7594 -83.5178 351° North 498 573 34,000  Level Atlanta Center
10:23 34.9014 -83.5197 359° North 503 579 34,000  Level Atlanta Center
10:24 35.0433 -83.5339 355° North 503 579 34,000  Level Atlanta Center
10:25 35.2039 -83.5303 North 510 587 34,000  Level Atlanta Center
10:26 35.3458 -83.5422 356° North 510 587 34,000  Level Atlanta Center
10:27 35.4858 -83.5464 359° North 510 587 34,000  Level Atlanta Center
10:28 35.6297 -83.5558 357° North 510 587 34,000  Level Atlanta Center
10:29 35.7694 -83.5575 359° North 510 587 34,000  Level Atlanta Center
10:30 35.9114 -83.5694 356° North 510 587 34,000  Level Atlanta Center
10:31 36.0533 -83.5714 359° North 510 587 34,000  Level Atlanta Center
10:32 36.1894 -83.5783 358° North 504 580 34,000  Level Indianapolis Center
10:33 36.3300 -83.5797 360° North 504 580 34,000  Level Indianapolis Center
10:34 36.4686 -83.5900 357° North 504 580 34,000  Level Indianapolis Center
10:35 36.6208 -83.5911 360° North 504 580 34,000  Level Indianapolis Center
10:36 36.7600 -83.6022 356° North 502 578 34,000  Level Indianapolis Center
10:37 36.9017 -83.6039 359° North 502 578 34,000  Level Indianapolis Center
10:38 37.0431 -83.6039 360° North 502 578 34,000  Level Indianapolis Center
10:39 37.1853 -83.6075 359° North 503 579 34,000 -420 Level Indianapolis Center
10:40 37.3269 -83.6050 North 503 579 33,200 -540 Descending Indianapolis Center
10:41 37.4675 -83.6081 359° North 503 579 33,000 -120 Descending Indianapolis Center
10:42 37.6322 -83.6053 North 503 579 33,000  Level Indianapolis Center
10:43 37.7725 -83.6100 358° North 503 579 33,000  Level Indianapolis Center
10:44 37.9122 -83.6103 360° North 503 579 33,000  Level Indianapolis Center
10:45 38.0519 -83.6114 360° North 502 578 33,000  Level Indianapolis Center
10:46 38.1878 -83.6136 359° North 492 566 33,000  Level Indianapolis Center
10:47 38.3269 -83.6139 360° North 494 568 33,000  Level Indianapolis Center
10:48 38.4658 -83.6156 359° North 494 568 33,000  Level Indianapolis Center
10:49 38.6064 -83.6153 360° North 497 572 33,000  Level Indianapolis Center
10:50 38.7558 -83.6167 360° North 498 573 33,000  Level Indianapolis Center
10:51 38.8953 -83.6175 360° North 499 574 33,000  Level Indianapolis Center
10:52 39.0328 -83.6189 360° North 498 573 33,000 -780 Level Indianapolis Center
10:53 39.1700 -83.6178 360° North 495 570 31,500 -1,440 Descending Indianapolis Center
10:54 39.3069 -83.6264 357° North 494 568 30,100 -1,320 Descending Indianapolis Center
10:55 39.4425 -83.6186 North 492 566 28,800 -1,740 Descending Indianapolis Center
10:56 39.6014 -83.6269 358° North 477 549 26,600 -1,560 Descending Indianapolis Center
10:57 39.7328 -83.6214 North 474 545 25,700 -1,260 Descending Indianapolis Center
10:58 39.8589 -83.6281 358° North 448 516 24,100 -840 Descending Indianapolis Center
10:59 39.9847 -83.6242 North 444 511 24,000 -480 Descending Indianapolis Center
11:00 40.1081 -83.6269 359° North 443 510 23,200 -540 Descending Indianapolis Center
11:01 40.2289 -83.6256 North 440 506 23,000 -120 Descending Indianapolis Center
11:02 40.3419 -83.6286 359° North 413 475 23,000 -840 Level Indianapolis Center
11:03 40.4558 -83.6286 360° North 408 470 21,400 -1,740 Descending Indianapolis Center
11:04 40.5728 -83.6314 359° North 417 480 19,500 -1,920 Descending Indianapolis Center
11:05 40.6889 -83.6333 359° North 417 480 17,500 -1,920 Descending Indianapolis Center
11:06 40.8047 -83.6353 359° North 417 480 15,600 -1,920 Descending Indianapolis Center
11:07 40.9194 -83.6336 North 416 479 13,600 -1,860 Descending Indianapolis Center
11:08 41.0306 -83.6319 North 405 466 11,900 -1,500 Descending Indianapolis Center
11:09 41.1250 -83.7306 322° Northwest 366 421 10,600 -1,380 Descending Indianapolis Center
11:11 41.1931 -83.7989 323° Northwest 292 336 9,000 -1,320 Descending Cleveland Center
11:12 41.2544 -83.8631 322° Northwest 284 327 7,800 -1,440 Descending Cleveland Center
11:13 41.3122 -83.9181 324° Northwest 265 305 6,100 -1,680 Descending Cleveland Center
11:14 41.3678 -83.9608 330° Northwest 247 284 4,400 -1,260 Descending Cleveland Center
11:15 41.4164 -84.0011 328° Northwest 228 262 3,600 -840 Descending Cleveland Center
11:16 41.4747 -84.0242 344° North 217 250 2,800 -480 Descending Cleveland Center
11:18 41.5369 -83.9653 35° Northeast 132 152 2,300 -300 Descending Cleveland Center
11:19 41.5533 -83.9183 65° Northeast 141 162 2,100 -240 Descending Cleveland Center